Archer City, TX

10:54 PM CDT on September 19, 2014 (GMT -0500)
Archer City | Change Station
CLOSE
Current Station
Personal Weather Station
Location: Archer City, TX
Elevation: 1089 ft
Nearby Weather Stations

Elev 1089 ft 33.58 °N, 98.63 °W | Updated 3 seconds ago

Partly Cloudy
Partly Cloudy
72.8 °F
Feels Like 72.8 °F
N
2.2
Wind Variable Wind from East
Gusts 3.1 mph

Today
High -- | Low -- °F
--% Chance of Precip.
Yesterday
High -- | Low -- °F
Precip. -- in
7:20 AM 7:35 PM
Waning Crescent, 15% visible
Pressure 29.97 in
Visibility 10.0 miles
Clouds Clear
Dew Point 73 °F
Humidity 99%
Rainfall 0.01 in
Snow Depth Not available.
UV 0 out of 12
Pollen 10.50 out of 12
Air Quality Not available.
Flu Activity Not available.
METAR KCWC 200335Z AUTO 10004KT 10SM CLR 24/19 A2997 RMK AO2 T02420187

More Conditions Fewer Conditions

Pressure 29.97 in
Visibility 10.0 miles
Clouds Clear
Dew Point 73 °F
Humidity 99%
Rainfall 0.01 in
Snow Depth Not available.
UV 0 out of 12
Pollen 10.50 out of 12
Air Quality Not available.
Flu Activity Not available.
METAR KCWC 200335Z AUTO 10004KT 10SM CLR 24/19 A2997 RMK AO2 T02420187

More Conditions Fewer Conditions

10-Day Weather Forecast

Almanac

Astronomy

Sep. 19, 2014 Rise Set
Actual Time 7:20 AM CDT 7:35 PM CDT
Civil Twilight 6:55 AM CDT 8:00 PM CDT
Nautical Twilight 6:26 AM CDT 8:29 PM CDT
Astronomical Twilight 5:57 AM CDT 8:58 PM CDT
Moon 3:16 AM CDT (9/19) 4:56 PM CDT (9/19)
Length of Visible Light 13h 04m
Length of Day
12h 14m
Tomorrow will be 2m 4s shorter.
Waning Crescent, 15% of the Moon is Illuminated
Today
Waning Crescent
Sep 24
New
Oct 1
First Quarter
Oct 8
Full
Oct 15
Last Quarter

Today's Extremes

State Highs State Lows

Community

WunderPhotos

Upload Photos

1,754,777 photos uploaded!

WunderBlogs® & News

Nearby

Snow Depth

Station Depth Elevation
No new snow has been reported.

Earthquake Activity

City Distance Mag. Time & Date
Jones, Oklahoma 156 miles 2.8 1:13 AM CDT
2014-09-19
Minimum magnitude displayed is 2.5.

Coastal Water Temperatures

Place Temperature
No Stations Reporting

Nearby Weather Stations